sensor_id;sensor_type;location;lat;lon;timestamp;temperature;humidity
16174;DHT22;14031;50.158;8.626;2023-12-20T00:02:12;6.30;99.90
16174;DHT22;14031;50.158;8.626;2023-12-20T00:04:39;6.20;99.90
16174;DHT22;14031;50.158;8.626;2023-12-20T00:07:06;6.20;99.90
16174;DHT22;14031;50.158;8.626;2023-12-20T00:09:33;6.20;99.90
16174;DHT22;14031;50.158;8.626;2023-12-20T00:12:01;6.20;99.90
16174;DHT22;14031;50.158;8.626;2023-12-20T00:14:28;6.20;99.90
16174;DHT22;14031;50.158;8.626;2023-12-20T00:16:54;6.20;99.90
16174;DHT22;14031;50.158;8.626;2023-12-20T00:19:21;6.20;99.90
16174;DHT22;14031;50.158;8.626;2023-12-20T00:21:48;6.20;99.90
16174;DHT22;14031;50.158;8.626;2023-12-20T00:24:15;6.30;99.90
16174;DHT22;14031;50.158;8.626;2023-12-20T00:26:42;6.20;99.90
16174;DHT22;14031;50.158;8.626;2023-12-20T00:29:10;6.20;99.90
16174;DHT22;14031;50.158;8.626;2023-12-20T00:31:37;6.20;99.90
16174;DHT22;14031;50.158;8.626;2023-12-20T00:34:03;6.20;99.90
16174;DHT22;14031;50.158;8.626;2023-12-20T00:36:30;6.20;99.90
16174;DHT22;14031;50.158;8.626;2023-12-20T00:38:57;6.20;99.90
16174;DHT22;14031;50.158;8.626;2023-12-20T00:41:23;6.20;99.90
16174;DHT22;14031;50.158;8.626;2023-12-20T00:43:50;6.20;99.90
16174;DHT22;14031;50.158;8.626;2023-12-20T00:46:18;6.20;99.90
16174;DHT22;14031;50.158;8.626;2023-12-20T00:48:45;6.20;99.90
16174;DHT22;14031;50.158;8.626;2023-12-20T00:51:12;6.20;99.90
16174;DHT22;14031;50.158;8.626;2023-12-20T00:53:39;6.20;99.90
16174;DHT22;14031;50.158;8.626;2023-12-20T00:56:06;6.20;99.90
16174;DHT22;14031;50.158;8.626;2023-12-20T00:58:32;6.20;99.90
16174;DHT22;14031;50.158;8.626;2023-12-20T01:00:59;6.20;99.90
16174;DHT22;14031;50.158;8.626;2023-12-20T01:03:27;6.20;99.90
16174;DHT22;14031;50.158;8.626;2023-12-20T01:05:54;6.20;99.90
16174;DHT22;14031;50.158;8.626;2023-12-20T01:08:21;6.20;99.90
16174;DHT22;14031;50.158;8.626;2023-12-20T01:10:47;6.20;99.90
16174;DHT22;14031;50.158;8.626;2023-12-20T01:13:14;6.20;99.90
16174;DHT22;14031;50.158;8.626;2023-12-20T01:15:41;6.20;99.90
16174;DHT22;14031;50.158;8.626;2023-12-20T01:18:08;6.30;99.90
16174;DHT22;14031;50.158;8.626;2023-12-20T01:20:36;6.20;99.90
16174;DHT22;14031;50.158;8.626;2023-12-20T01:23:03;6.20;99.90
16174;DHT22;14031;50.158;8.626;2023-12-20T01:25:30;6.20;99.90
16174;DHT22;14031;50.158;8.626;2023-12-20T01:27:56;6.30;99.90
16174;DHT22;14031;50.158;8.626;2023-12-20T01:30:23;6.20;99.90
16174;DHT22;14031;50.158;8.626;2023-12-20T01:32:50;6.20;99.90
16174;DHT22;14031;50.158;8.626;2023-12-20T01:35:16;6.20;99.90
16174;DHT22;14031;50.158;8.626;2023-12-20T01:37:45;6.20;99.90
16174;DHT22;14031;50.158;8.626;2023-12-20T01:40:11;6.20;99.90
16174;DHT22;14031;50.158;8.626;2023-12-20T01:42:37;6.20;99.90
16174;DHT22;14031;50.158;8.626;2023-12-20T01:45:05;6.20;99.90
16174;DHT22;14031;50.158;8.626;2023-12-20T01:47:31;6.20;99.90
16174;DHT22;14031;50.158;8.626;2023-12-20T01:49:58;6.20;99.90
16174;DHT22;14031;50.158;8.626;2023-12-20T01:52:25;6.20;99.90
16174;DHT22;14031;50.158;8.626;2023-12-20T01:54:54;6.20;99.90
16174;DHT22;14031;50.158;8.626;2023-12-20T01:57:28;6.20;99.90
16174;DHT22;14031;50.158;8.626;2023-12-20T01:59:55;6.30;99.90
16174;DHT22;14031;50.158;8.626;2023-12-20T02:02:22;6.20;99.90
16174;DHT22;14031;50.158;8.626;2023-12-20T02:04:49;6.20;99.90
16174;DHT22;14031;50.158;8.626;2023-12-20T02:07:18;6.20;99.90
16174;DHT22;14031;50.158;8.626;2023-12-20T02:09:45;6.30;99.90
16174;DHT22;14031;50.158;8.626;2023-12-20T02:12:13;6.30;99.90
16174;DHT22;14031;50.158;8.626;2023-12-20T02:14:39;6.20;99.90
16174;DHT22;14031;50.158;8.626;2023-12-20T02:17:06;6.30;99.90
16174;DHT22;14031;50.158;8.626;2023-12-20T02:19:33;6.30;99.90
16174;DHT22;14031;50.158;8.626;2023-12-20T02:22:09;6.30;99.90
16174;DHT22;14031;50.158;8.626;2023-12-20T02:24:35;6.30;99.90
16174;DHT22;14031;50.158;8.626;2023-12-20T02:27:03;6.30;99.90
16174;DHT22;14031;50.158;8.626;2023-12-20T02:29:31;6.20;99.90
16174;DHT22;14031;50.158;8.626;2023-12-20T02:31:57;6.20;99.90
16174;DHT22;14031;50.158;8.626;2023-12-20T02:34:24;6.20;99.90
16174;DHT22;14031;50.158;8.626;2023-12-20T02:36:51;6.20;99.90
16174;DHT22;14031;50.158;8.626;2023-12-20T02:39:21;6.20;99.90
16174;DHT22;14031;50.158;8.626;2023-12-20T02:41:48;6.20;99.90
16174;DHT22;14031;50.158;8.626;2023-12-20T02:44:15;6.20;99.90
16174;DHT22;14031;50.158;8.626;2023-12-20T02:46:42;6.20;99.90
16174;DHT22;14031;50.158;8.626;2023-12-20T02:49:08;6.10;99.90
16174;DHT22;14031;50.158;8.626;2023-12-20T02:51:35;6.10;99.90
16174;DHT22;14031;50.158;8.626;2023-12-20T02:54:04;6.20;99.90
16174;DHT22;14031;50.158;8.626;2023-12-20T02:56:32;6.20;99.90
16174;DHT22;14031;50.158;8.626;2023-12-20T02:58:58;6.20;99.90
16174;DHT22;14031;50.158;8.626;2023-12-20T03:01:26;6.20;99.90
16174;DHT22;14031;50.158;8.626;2023-12-20T03:03:53;6.20;99.90
16174;DHT22;14031;50.158;8.626;2023-12-20T03:06:19;6.20;99.90
16174;DHT22;14031;50.158;8.626;2023-12-20T03:08:46;6.20;99.90
16174;DHT22;14031;50.158;8.626;2023-12-20T03:11:13;6.20;99.90
16174;DHT22;14031;50.158;8.626;2023-12-20T03:13:41;6.30;99.90
16174;DHT22;14031;50.158;8.626;2023-12-20T03:16:08;6.20;99.90
16174;DHT22;14031;50.158;8.626;2023-12-20T03:18:35;6.20;99.90
16174;DHT22;14031;50.158;8.626;2023-12-20T03:21:02;6.20;99.90
16174;DHT22;14031;50.158;8.626;2023-12-20T03:23:29;6.20;99.90
16174;DHT22;14031;50.158;8.626;2023-12-20T03:25:58;6.20;99.90
16174;DHT22;14031;50.158;8.626;2023-12-20T03:28:25;6.20;99.90
16174;DHT22;14031;50.158;8.626;2023-12-20T03:30:53;6.30;99.90
16174;DHT22;14031;50.158;8.626;2023-12-20T03:33:20;6.30;99.90
16174;DHT22;14031;50.158;8.626;2023-12-20T03:35:47;6.30;99.90
16174;DHT22;14031;50.158;8.626;2023-12-20T03:38:14;6.20;99.90
16174;DHT22;14031;50.158;8.626;2023-12-20T03:40:40;6.30;99.90
16174;DHT22;14031;50.158;8.626;2023-12-20T03:43:07;6.30;99.90
16174;DHT22;14031;50.158;8.626;2023-12-20T03:45:34;6.30;99.90
16174;DHT22;14031;50.158;8.626;2023-12-20T03:48:02;6.30;99.90
16174;DHT22;14031;50.158;8.626;2023-12-20T03:50:29;6.40;99.90
16174;DHT22;14031;50.158;8.626;2023-12-20T03:52:55;6.40;99.90
16174;DHT22;14031;50.158;8.626;2023-12-20T03:55:22;6.40;99.90
16174;DHT22;14031;50.158;8.626;2023-12-20T03:57:49;6.40;99.90
16174;DHT22;14031;50.158;8.626;2023-12-20T04:00:16;6.40;99.90
16174;DHT22;14031;50.158;8.626;2023-12-20T04:02:43;6.40;99.90
16174;DHT22;14031;50.158;8.626;2023-12-20T04:05:11;6.40;99.90
16174;DHT22;14031;50.158;8.626;2023-12-20T04:07:38;6.50;99.90
16174;DHT22;14031;50.158;8.626;2023-12-20T04:10:06;6.40;99.90
16174;DHT22;14031;50.158;8.626;2023-12-20T04:12:33;6.40;99.90
16174;DHT22;14031;50.158;8.626;2023-12-20T04:15:00;6.40;99.90
16174;DHT22;14031;50.158;8.626;2023-12-20T04:17:29;6.40;99.90
16174;DHT22;14031;50.158;8.626;2023-12-20T04:19:55;6.40;99.90
16174;DHT22;14031;50.158;8.626;2023-12-20T04:22:23;6.40;99.90
16174;DHT22;14031;50.158;8.626;2023-12-20T04:24:50;6.30;99.90
16174;DHT22;14031;50.158;8.626;2023-12-20T04:27:17;6.30;99.90
16174;DHT22;14031;50.158;8.626;2023-12-20T04:29:43;6.30;99.90
16174;DHT22;14031;50.158;8.626;2023-12-20T04:32:10;6.20;99.90
16174;DHT22;14031;50.158;8.626;2023-12-20T04:34:37;6.20;99.90
16174;DHT22;14031;50.158;8.626;2023-12-20T04:37:04;6.30;99.90
16174;DHT22;14031;50.158;8.626;2023-12-20T04:39:32;6.30;99.90
16174;DHT22;14031;50.158;8.626;2023-12-20T04:41:58;6.40;99.90
16174;DHT22;14031;50.158;8.626;2023-12-20T04:44:25;6.20;99.90
16174;DHT22;14031;50.158;8.626;2023-12-20T04:46:52;6.10;99.90
16174;DHT22;14031;50.158;8.626;2023-12-20T04:49:19;6.00;99.90
16174;DHT22;14031;50.158;8.626;2023-12-20T04:51:45;6.00;99.90
16174;DHT22;14031;50.158;8.626;2023-12-20T04:54:12;6.00;99.90
16174;DHT22;14031;50.158;8.626;2023-12-20T04:56:41;6.00;99.90
16174;DHT22;14031;50.158;8.626;2023-12-20T04:59:08;6.00;99.90
16174;DHT22;14031;50.158;8.626;2023-12-20T05:01:34;6.10;99.90
16174;DHT22;14031;50.158;8.626;2023-12-20T05:04:01;6.10;99.90
16174;DHT22;14031;50.158;8.626;2023-12-20T05:06:28;6.10;99.90
16174;DHT22;14031;50.158;8.626;2023-12-20T05:08:55;6.00;99.90
16174;DHT22;14031;50.158;8.626;2023-12-20T05:11:21;6.10;99.90
16174;DHT22;14031;50.158;8.626;2023-12-20T05:13:49;6.00;99.90
16174;DHT22;14031;50.158;8.626;2023-12-20T05:16:16;5.90;99.90
16174;DHT22;14031;50.158;8.626;2023-12-20T05:18:45;5.80;99.90
16174;DHT22;14031;50.158;8.626;2023-12-20T05:21:12;5.70;99.90
16174;DHT22;14031;50.158;8.626;2023-12-20T05:23:38;5.70;99.90
16174;DHT22;14031;50.158;8.626;2023-12-20T05:26:05;5.70;99.90
16174;DHT22;14031;50.158;8.626;2023-12-20T05:28:32;5.50;99.90
16174;DHT22;14031;50.158;8.626;2023-12-20T05:31:00;5.50;99.90
16174;DHT22;14031;50.158;8.626;2023-12-20T05:33:27;5.40;99.90
16174;DHT22;14031;50.158;8.626;2023-12-20T05:35:53;5.50;99.90
16174;DHT22;14031;50.158;8.626;2023-12-20T05:38:20;5.40;99.90
16174;DHT22;14031;50.158;8.626;2023-12-20T05:40:47;5.40;99.90
16174;DHT22;14031;50.158;8.626;2023-12-20T05:43:14;5.30;99.90
16174;DHT22;14031;50.158;8.626;2023-12-20T05:45:40;5.40;99.90
16174;DHT22;14031;50.158;8.626;2023-12-20T05:48:09;5.40;99.90
16174;DHT22;14031;50.158;8.626;2023-12-20T05:50:35;5.30;99.90
16174;DHT22;14031;50.158;8.626;2023-12-20T05:53:02;5.30;99.90
16174;DHT22;14031;50.158;8.626;2023-12-20T05:55:29;5.20;99.90
16174;DHT22;14031;50.158;8.626;2023-12-20T05:57:56;5.10;99.90
16174;DHT22;14031;50.158;8.626;2023-12-20T06:00:22;5.00;99.90
16174;DHT22;14031;50.158;8.626;2023-12-20T06:02:50;5.10;99.90
16174;DHT22;14031;50.158;8.626;2023-12-20T06:05:18;5.00;99.90
16174;DHT22;14031;50.158;8.626;2023-12-20T06:07:45;4.90;99.90
16174;DHT22;14031;50.158;8.626;2023-12-20T06:10:13;5.00;99.90
16174;DHT22;14031;50.158;8.626;2023-12-20T06:12:40;5.00;99.90
16174;DHT22;14031;50.158;8.626;2023-12-20T06:15:08;4.80;99.90
16174;DHT22;14031;50.158;8.626;2023-12-20T06:17:34;4.80;99.90
16174;DHT22;14031;50.158;8.626;2023-12-20T06:20:02;4.80;99.90
16174;DHT22;14031;50.158;8.626;2023-12-20T06:22:34;4.80;99.90
16174;DHT22;14031;50.158;8.626;2023-12-20T06:25:01;4.80;99.90
16174;DHT22;14031;50.158;8.626;2023-12-20T06:27:28;4.70;99.90
16174;DHT22;14031;50.158;8.626;2023-12-20T06:29:55;4.70;99.90
16174;DHT22;14031;50.158;8.626;2023-12-20T06:32:22;4.70;99.90
16174;DHT22;14031;50.158;8.626;2023-12-20T06:34:49;4.50;99.90
16174;DHT22;14031;50.158;8.626;2023-12-20T06:37:16;4.50;99.90
16174;DHT22;14031;50.158;8.626;2023-12-20T06:39:44;4.50;99.90
16174;DHT22;14031;50.158;8.626;2023-12-20T06:42:12;4.40;99.90
16174;DHT22;14031;50.158;8.626;2023-12-20T06:44:38;4.40;99.90
16174;DHT22;14031;50.158;8.626;2023-12-20T06:47:05;4.30;99.90
16174;DHT22;14031;50.158;8.626;2023-12-20T06:49:32;4.30;99.90
16174;DHT22;14031;50.158;8.626;2023-12-20T06:51:59;4.40;99.90
16174;DHT22;14031;50.158;8.626;2023-12-20T06:54:25;4.20;99.90
16174;DHT22;14031;50.158;8.626;2023-12-20T06:56:53;4.20;99.90
16174;DHT22;14031;50.158;8.626;2023-12-20T06:59:20;4.20;99.90
16174;DHT22;14031;50.158;8.626;2023-12-20T07:01:48;4.40;99.90
16174;DHT22;14031;50.158;8.626;2023-12-20T07:04:15;4.50;99.90
16174;DHT22;14031;50.158;8.626;2023-12-20T07:06:42;4.50;99.90
16174;DHT22;14031;50.158;8.626;2023-12-20T07:09:09;4.60;99.90
16174;DHT22;14031;50.158;8.626;2023-12-20T07:11:38;4.70;99.90
16174;DHT22;14031;50.158;8.626;2023-12-20T07:14:06;4.90;99.90
16174;DHT22;14031;50.158;8.626;2023-12-20T07:16:34;4.90;99.90
16174;DHT22;14031;50.158;8.626;2023-12-20T07:19:01;5.00;99.90
16174;DHT22;14031;50.158;8.626;2023-12-20T07:21:28;5.10;99.90
16174;DHT22;14031;50.158;8.626;2023-12-20T07:23:55;5.20;99.90
16174;DHT22;14031;50.158;8.626;2023-12-20T07:26:22;5.10;99.90
16174;DHT22;14031;50.158;8.626;2023-12-20T07:28:49;5.10;99.90
16174;DHT22;14031;50.158;8.626;2023-12-20T07:31:17;5.10;99.90
16174;DHT22;14031;50.158;8.626;2023-12-20T07:33:44;5.00;99.90
16174;DHT22;14031;50.158;8.626;2023-12-20T07:36:12;5.00;99.90
16174;DHT22;14031;50.158;8.626;2023-12-20T07:38:38;4.90;99.90
16174;DHT22;14031;50.158;8.626;2023-12-20T07:41:09;4.80;99.90
16174;DHT22;14031;50.158;8.626;2023-12-20T07:43:36;4.80;99.90
16174;DHT22;14031;50.158;8.626;2023-12-20T07:46:06;4.80;99.90
16174;DHT22;14031;50.158;8.626;2023-12-20T07:48:34;4.80;99.90
16174;DHT22;14031;50.158;8.626;2023-12-20T07:51:02;4.80;99.90
16174;DHT22;14031;50.158;8.626;2023-12-20T07:53:29;4.90;99.90
16174;DHT22;14031;50.158;8.626;2023-12-20T07:55:55;5.00;99.90
16174;DHT22;14031;50.158;8.626;2023-12-20T07:58:22;5.10;99.90
16174;DHT22;14031;50.158;8.626;2023-12-20T08:00:49;5.10;99.90
16174;DHT22;14031;50.158;8.626;2023-12-20T08:03:15;5.20;99.90
16174;DHT22;14031;50.158;8.626;2023-12-20T08:05:44;5.30;99.90
16174;DHT22;14031;50.158;8.626;2023-12-20T08:08:10;5.30;99.90
16174;DHT22;14031;50.158;8.626;2023-12-20T08:10:37;5.30;99.90
16174;DHT22;14031;50.158;8.626;2023-12-20T08:13:04;5.40;99.90
16174;DHT22;14031;50.158;8.626;2023-12-20T08:15:30;5.50;99.90
16174;DHT22;14031;50.158;8.626;2023-12-20T08:17:57;5.50;99.90
16174;DHT22;14031;50.158;8.626;2023-12-20T08:20:24;5.50;99.90
16174;DHT22;14031;50.158;8.626;2023-12-20T08:22:52;5.60;99.90
16174;DHT22;14031;50.158;8.626;2023-12-20T08:25:19;5.50;99.90
16174;DHT22;14031;50.158;8.626;2023-12-20T08:27:46;5.40;99.90
16174;DHT22;14031;50.158;8.626;2023-12-20T08:30:12;5.30;99.90
16174;DHT22;14031;50.158;8.626;2023-12-20T08:32:39;5.20;99.90
16174;DHT22;14031;50.158;8.626;2023-12-20T08:35:06;5.20;99.90
16174;DHT22;14031;50.158;8.626;2023-12-20T08:37:34;5.20;99.90
16174;DHT22;14031;50.158;8.626;2023-12-20T08:40:03;5.20;99.90
16174;DHT22;14031;50.158;8.626;2023-12-20T08:42:30;5.30;99.90
16174;DHT22;14031;50.158;8.626;2023-12-20T08:44:57;5.30;99.90
16174;DHT22;14031;50.158;8.626;2023-12-20T08:47:24;5.30;99.90
16174;DHT22;14031;50.158;8.626;2023-12-20T08:49:51;5.30;99.90
16174;DHT22;14031;50.158;8.626;2023-12-20T08:52:21;5.20;99.90
16174;DHT22;14031;50.158;8.626;2023-12-20T08:54:48;5.10;99.90
16174;DHT22;14031;50.158;8.626;2023-12-20T08:57:19;5.00;99.90
16174;DHT22;14031;50.158;8.626;2023-12-20T08:59:46;5.00;99.90
16174;DHT22;14031;50.158;8.626;2023-12-20T09:02:13;5.00;99.90
16174;DHT22;14031;50.158;8.626;2023-12-20T09:04:40;5.00;99.90
16174;DHT22;14031;50.158;8.626;2023-12-20T09:07:14;5.00;99.90
16174;DHT22;14031;50.158;8.626;2023-12-20T09:09:46;5.00;99.90
16174;DHT22;14031;50.158;8.626;2023-12-20T09:12:13;5.10;99.90
16174;DHT22;14031;50.158;8.626;2023-12-20T09:14:41;5.20;99.90
16174;DHT22;14031;50.158;8.626;2023-12-20T09:17:08;5.40;99.90
16174;DHT22;14031;50.158;8.626;2023-12-20T09:19:37;5.40;99.90
16174;DHT22;14031;50.158;8.626;2023-12-20T09:22:03;5.40;99.90
16174;DHT22;14031;50.158;8.626;2023-12-20T09:24:31;5.40;99.90
16174;DHT22;14031;50.158;8.626;2023-12-20T09:26:57;5.30;99.90
16174;DHT22;14031;50.158;8.626;2023-12-20T09:29:24;5.30;99.90
16174;DHT22;14031;50.158;8.626;2023-12-20T09:31:52;5.30;99.90
16174;DHT22;14031;50.158;8.626;2023-12-20T09:34:19;5.30;99.90
16174;DHT22;14031;50.158;8.626;2023-12-20T09:36:46;5.30;99.90
16174;DHT22;14031;50.158;8.626;2023-12-20T09:39:13;5.30;99.90
16174;DHT22;14031;50.158;8.626;2023-12-20T09:41:43;5.40;99.90
16174;DHT22;14031;50.158;8.626;2023-12-20T09:44:12;5.40;99.90
16174;DHT22;14031;50.158;8.626;2023-12-20T09:46:44;5.30;99.90
16174;DHT22;14031;50.158;8.626;2023-12-20T09:49:13;5.40;99.90
16174;DHT22;14031;50.158;8.626;2023-12-20T09:51:40;5.40;99.90
16174;DHT22;14031;50.158;8.626;2023-12-20T09:54:08;5.40;99.90
16174;DHT22;14031;50.158;8.626;2023-12-20T09:56:37;5.50;99.90
16174;DHT22;14031;50.158;8.626;2023-12-20T09:59:04;5.50;99.90
16174;DHT22;14031;50.158;8.626;2023-12-20T10:01:31;5.60;99.90
16174;DHT22;14031;50.158;8.626;2023-12-20T10:03:58;5.70;99.90
16174;DHT22;14031;50.158;8.626;2023-12-20T10:06:28;5.70;99.90
16174;DHT22;14031;50.158;8.626;2023-12-20T10:08:55;5.70;99.90
16174;DHT22;14031;50.158;8.626;2023-12-20T10:11:22;5.70;99.90
16174;DHT22;14031;50.158;8.626;2023-12-20T10:13:50;5.80;99.90
16174;DHT22;14031;50.158;8.626;2023-12-20T10:16:16;5.80;99.90
16174;DHT22;14031;50.158;8.626;2023-12-20T10:18:43;5.80;99.90
16174;DHT22;14031;50.158;8.626;2023-12-20T10:21:12;5.80;99.90
16174;DHT22;14031;50.158;8.626;2023-12-20T10:23:40;5.90;99.90
16174;DHT22;14031;50.158;8.626;2023-12-20T10:26:07;5.90;99.90
16174;DHT22;14031;50.158;8.626;2023-12-20T10:28:35;6.00;99.90
16174;DHT22;14031;50.158;8.626;2023-12-20T10:31:02;6.00;99.90
16174;DHT22;14031;50.158;8.626;2023-12-20T10:33:31;6.00;99.90
16174;DHT22;14031;50.158;8.626;2023-12-20T10:35:58;6.00;99.90
16174;DHT22;14031;50.158;8.626;2023-12-20T10:38:25;6.00;99.90
16174;DHT22;14031;50.158;8.626;2023-12-20T10:40:57;6.00;99.90
16174;DHT22;14031;50.158;8.626;2023-12-20T10:43:24;6.00;99.90
16174;DHT22;14031;50.158;8.626;2023-12-20T10:45:52;6.00;99.90
16174;DHT22;14031;50.158;8.626;2023-12-20T10:48:20;6.10;99.90
16174;DHT22;14031;50.158;8.626;2023-12-20T10:50:47;6.10;99.90
16174;DHT22;14031;50.158;8.626;2023-12-20T10:53:16;6.20;99.90
16174;DHT22;14031;50.158;8.626;2023-12-20T10:55:43;6.30;99.90
16174;DHT22;14031;50.158;8.626;2023-12-20T10:58:13;6.30;99.90
16174;DHT22;14031;50.158;8.626;2023-12-20T11:00:41;6.40;99.90
16174;DHT22;14031;50.158;8.626;2023-12-20T11:03:10;6.40;99.90
16174;DHT22;14031;50.158;8.626;2023-12-20T11:05:42;6.40;99.90
16174;DHT22;14031;50.158;8.626;2023-12-20T11:08:14;6.40;99.90
16174;DHT22;14031;50.158;8.626;2023-12-20T11:10:48;6.50;99.90
16174;DHT22;14031;50.158;8.626;2023-12-20T11:13:21;6.50;99.90
16174;DHT22;14031;50.158;8.626;2023-12-20T11:15:49;6.60;99.90
16174;DHT22;14031;50.158;8.626;2023-12-20T11:18:16;6.70;99.90
16174;DHT22;14031;50.158;8.626;2023-12-20T11:20:42;6.80;99.90
16174;DHT22;14031;50.158;8.626;2023-12-20T11:23:09;6.90;99.90
16174;DHT22;14031;50.158;8.626;2023-12-20T11:25:50;7.00;99.90
16174;DHT22;14031;50.158;8.626;2023-12-20T11:28:24;7.20;99.90
16174;DHT22;14031;50.158;8.626;2023-12-20T11:30:52;7.30;99.90
16174;DHT22;14031;50.158;8.626;2023-12-20T11:33:21;7.50;99.90
16174;DHT22;14031;50.158;8.626;2023-12-20T11:35:49;7.70;99.90
16174;DHT22;14031;50.158;8.626;2023-12-20T11:38:15;7.70;99.90
16174;DHT22;14031;50.158;8.626;2023-12-20T11:40:43;7.80;99.90
16174;DHT22;14031;50.158;8.626;2023-12-20T11:43:10;8.00;99.90
16174;DHT22;14031;50.158;8.626;2023-12-20T11:45:49;7.90;99.90
16174;DHT22;14031;50.158;8.626;2023-12-20T11:48:17;8.10;99.90
16174;DHT22;14031;50.158;8.626;2023-12-20T11:50:45;8.20;99.90
16174;DHT22;14031;50.158;8.626;2023-12-20T11:53:11;8.20;99.90
16174;DHT22;14031;50.158;8.626;2023-12-20T11:55:38;8.30;99.90
16174;DHT22;14031;50.158;8.626;2023-12-20T11:58:05;8.40;99.90
16174;DHT22;14031;50.158;8.626;2023-12-20T12:00:32;8.30;99.90
16174;DHT22;14031;50.158;8.626;2023-12-20T12:03:00;8.40;99.90
16174;DHT22;14031;50.158;8.626;2023-12-20T12:05:30;8.50;99.90
16174;DHT22;14031;50.158;8.626;2023-12-20T12:07:57;8.60;99.90
16174;DHT22;14031;50.158;8.626;2023-12-20T12:10:23;8.70;99.90
16174;DHT22;14031;50.158;8.626;2023-12-20T12:12:50;8.90;99.90
16174;DHT22;14031;50.158;8.626;2023-12-20T12:15:17;8.90;99.90
16174;DHT22;14031;50.158;8.626;2023-12-20T12:17:44;9.00;99.90
16174;DHT22;14031;50.158;8.626;2023-12-20T12:20:12;9.10;99.90
16174;DHT22;14031;50.158;8.626;2023-12-20T12:22:39;9.10;99.90
16174;DHT22;14031;50.158;8.626;2023-12-20T12:25:12;9.10;99.90
16174;DHT22;14031;50.158;8.626;2023-12-20T12:27:40;9.00;99.90
16174;DHT22;14031;50.158;8.626;2023-12-20T12:30:09;8.90;99.90
16174;DHT22;14031;50.158;8.626;2023-12-20T12:32:38;9.00;99.90
16174;DHT22;14031;50.158;8.626;2023-12-20T12:35:07;9.00;99.90
16174;DHT22;14031;50.158;8.626;2023-12-20T12:37:38;9.10;99.90
16174;DHT22;14031;50.158;8.626;2023-12-20T12:40:05;9.20;99.90
16174;DHT22;14031;50.158;8.626;2023-12-20T12:42:32;9.20;99.90
16174;DHT22;14031;50.158;8.626;2023-12-20T12:44:59;9.30;99.90
16174;DHT22;14031;50.158;8.626;2023-12-20T12:47:26;9.40;99.90
16174;DHT22;14031;50.158;8.626;2023-12-20T12:49:53;9.40;99.90
16174;DHT22;14031;50.158;8.626;2023-12-20T12:52:20;9.40;99.90
16174;DHT22;14031;50.158;8.626;2023-12-20T12:54:48;9.40;99.90
16174;DHT22;14031;50.158;8.626;2023-12-20T12:57:15;9.40;99.90
16174;DHT22;14031;50.158;8.626;2023-12-20T12:59:43;9.30;99.90
16174;DHT22;14031;50.158;8.626;2023-12-20T13:02:11;9.10;99.90
16174;DHT22;14031;50.158;8.626;2023-12-20T13:04:38;9.20;99.90
16174;DHT22;14031;50.158;8.626;2023-12-20T13:07:05;9.00;99.90
16174;DHT22;14031;50.158;8.626;2023-12-20T13:09:32;9.00;99.90
16174;DHT22;14031;50.158;8.626;2023-12-20T13:12:00;9.10;99.90
16174;DHT22;14031;50.158;8.626;2023-12-20T13:14:29;9.40;99.90
16174;DHT22;14031;50.158;8.626;2023-12-20T13:16:56;9.50;99.90
16174;DHT22;14031;50.158;8.626;2023-12-20T13:19:22;9.60;99.90
16174;DHT22;14031;50.158;8.626;2023-12-20T13:21:49;9.50;99.90
16174;DHT22;14031;50.158;8.626;2023-12-20T13:24:16;9.50;99.90
16174;DHT22;14031;50.158;8.626;2023-12-20T13:26:44;9.40;99.90
16174;DHT22;14031;50.158;8.626;2023-12-20T13:29:12;9.40;99.90
16174;DHT22;14031;50.158;8.626;2023-12-20T13:31:39;9.30;99.90
16174;DHT22;14031;50.158;8.626;2023-12-20T13:34:06;9.30;99.90
16174;DHT22;14031;50.158;8.626;2023-12-20T13:36:33;9.20;99.90
16174;DHT22;14031;50.158;8.626;2023-12-20T13:39:00;9.20;99.90
16174;DHT22;14031;50.158;8.626;2023-12-20T13:41:28;9.10;99.90
16174;DHT22;14031;50.158;8.626;2023-12-20T13:43:55;9.00;99.90
16174;DHT22;14031;50.158;8.626;2023-12-20T13:46:23;9.10;99.90
16174;DHT22;14031;50.158;8.626;2023-12-20T13:48:50;9.00;99.90
16174;DHT22;14031;50.158;8.626;2023-12-20T13:51:17;8.90;99.90
16174;DHT22;14031;50.158;8.626;2023-12-20T13:53:44;8.80;99.90
16174;DHT22;14031;50.158;8.626;2023-12-20T13:56:11;8.80;99.90
16174;DHT22;14031;50.158;8.626;2023-12-20T13:58:37;8.80;99.90
16174;DHT22;14031;50.158;8.626;2023-12-20T14:01:05;8.70;99.90
16174;DHT22;14031;50.158;8.626;2023-12-20T14:03:34;8.70;99.90
16174;DHT22;14031;50.158;8.626;2023-12-20T14:06:00;8.70;99.90
16174;DHT22;14031;50.158;8.626;2023-12-20T14:08:27;8.70;99.90
16174;DHT22;14031;50.158;8.626;2023-12-20T14:10:54;8.60;99.90
16174;DHT22;14031;50.158;8.626;2023-12-20T14:13:21;8.60;99.90
16174;DHT22;14031;50.158;8.626;2023-12-20T14:15:48;8.60;99.90
16174;DHT22;14031;50.158;8.626;2023-12-20T14:18:15;8.60;99.90
16174;DHT22;14031;50.158;8.626;2023-12-20T14:20:43;8.60;99.90
16174;DHT22;14031;50.158;8.626;2023-12-20T14:23:12;8.50;99.90
16174;DHT22;14031;50.158;8.626;2023-12-20T14:25:41;8.50;99.90
16174;DHT22;14031;50.158;8.626;2023-12-20T14:28:08;8.50;99.90
16174;DHT22;14031;50.158;8.626;2023-12-20T14:30:35;8.60;99.90
16174;DHT22;14031;50.158;8.626;2023-12-20T14:33:04;8.50;99.90
16174;DHT22;14031;50.158;8.626;2023-12-20T14:35:31;8.50;99.90
16174;DHT22;14031;50.158;8.626;2023-12-20T14:37:59;8.50;99.90
16174;DHT22;14031;50.158;8.626;2023-12-20T14:40:26;8.50;99.90
16174;DHT22;14031;50.158;8.626;2023-12-20T14:42:53;8.60;99.90
16174;DHT22;14031;50.158;8.626;2023-12-20T14:45:20;8.40;99.90
16174;DHT22;14031;50.158;8.626;2023-12-20T14:47:47;8.40;99.90
16174;DHT22;14031;50.158;8.626;2023-12-20T14:50:14;8.40;99.90
16174;DHT22;14031;50.158;8.626;2023-12-20T14:52:43;8.40;99.90
16174;DHT22;14031;50.158;8.626;2023-12-20T14:55:12;8.40;99.90
16174;DHT22;14031;50.158;8.626;2023-12-20T14:57:38;8.40;99.90
16174;DHT22;14031;50.158;8.626;2023-12-20T15:00:06;8.40;99.90
16174;DHT22;14031;50.158;8.626;2023-12-20T15:02:33;8.40;99.90
16174;DHT22;14031;50.158;8.626;2023-12-20T15:05:00;8.30;99.90
16174;DHT22;14031;50.158;8.626;2023-12-20T15:07:27;8.30;99.90
16174;DHT22;14031;50.158;8.626;2023-12-20T15:09:54;8.20;99.90
16174;DHT22;14031;50.158;8.626;2023-12-20T15:12:23;8.10;99.90
16174;DHT22;14031;50.158;8.626;2023-12-20T15:14:50;8.10;99.90
16174;DHT22;14031;50.158;8.626;2023-12-20T15:17:16;8.10;99.90
16174;DHT22;14031;50.158;8.626;2023-12-20T15:19:43;8.10;99.90
16174;DHT22;14031;50.158;8.626;2023-12-20T15:22:10;8.10;99.90
16174;DHT22;14031;50.158;8.626;2023-12-20T15:24:37;8.00;99.90
16174;DHT22;14031;50.158;8.626;2023-12-20T15:27:06;8.00;99.90
16174;DHT22;14031;50.158;8.626;2023-12-20T15:29:34;7.90;99.90
16174;DHT22;14031;50.158;8.626;2023-12-20T15:32:02;7.90;99.90
16174;DHT22;14031;50.158;8.626;2023-12-20T15:34:29;7.90;99.90
16174;DHT22;14031;50.158;8.626;2023-12-20T15:36:57;7.90;99.90
16174;DHT22;14031;50.158;8.626;2023-12-20T15:39:24;7.90;99.90
16174;DHT22;14031;50.158;8.626;2023-12-20T15:41:51;7.90;99.90
16174;DHT22;14031;50.158;8.626;2023-12-20T15:44:17;7.90;99.90
16174;DHT22;14031;50.158;8.626;2023-12-20T15:46:45;7.90;99.90